Impacts TAF Board
For situational awareness. Not to be used for flight planning purposes.
IDs:

KSTL - St Louis/Lambert Int, MO, US

Issued at 2120 UTC 18 Nov 2018
Updated at 2252 UTC 18 Nov 2018
Potential Impact None Slight Moderate High
Time2151Z 18/23Z 19/00Z 19/01Z 19/02Z 19/03Z 19/04Z 19/05Z 19/06Z 19/07Z 19/08Z 19/09Z 19/10Z 19/11Z>>
Type OBS PRVL
  [TEMP]  
PRVL
  [TEMP]  
PRVL
  [TEMP]  
PRVL
  [TEMP]  
PRVL PRVL PRVL PRVL PRVL PRVL PRVL PRVL PRVL
VIS 5 5
  [4]  
5
  [4]  
5
  [4]  
5
  [4]  
5 5 5 5 5 5 5 5 5
CIG 6 6
  [6]  
6
  [6]  
6
  [6]  
6
  [6]  
6 6 6 6 6 6 6 6 6
Cover OVC OVC
  [OVC]  
OVC
  [OVC]  
OVC
  [OVC]  
OVC
  [OVC]  
OVC OVC OVC OVC OVC OVC OVC OVC OVC
FltCat IFR IFR
  [IFR]  
IFR
  [IFR]  
IFR
  [IFR]  
IFR
  [IFR]  
IFR IFR IFR IFR IFR IFR IFR IFR IFR
WX BR BR
  [-RA BR]  
BR
  [-RA BR]  
BR
  [-RA BR]  
BR
  [-RA BR]  
BR BR BR BR BR BR BR BR BR
WDir 330 350
[350]
350
[350]
350
[350]
350
[350]
350 350 350 350 350 350 350 350 350
WSpd 7 6
  [6]  
6
  [6]  
6
  [6]  
6
  [6]  
6 6 6 6 6 6 6 6 6
WGst -- --
  [--]  
--
  [--]  
--
  [--]  
--
  [--]  
-- -- -- -- -- -- -- -- --
Raw TAF
KSTL 182120Z 1821/1924 35006KT 5SM BR OVC006
  TEMPO 1823/1903 4SM -RA BR
  FM191500 VRB03KT P6SM OVC009
  FM191700 26005KT P6SM OVC014
  FM192200 26005KT P6SM BKN035


Raw METAR
KSTL 182151Z 33007KT 5SM BR OVC006 02/01 A3022 RMK AO2 SLP244 T00220011 $
KSTL 182051Z 32004KT 5SM BR OVC005 02/01 A3022 RMK AO2 SLP242 T00170011 58018 $
KSTL 181951Z 34005KT 5SM BR OVC005 02/01 A3024 RMK AO2 SLP248 T00170011 $

METAR Board
Radar Display
Forecast Discussion
For situational awareness. Not to be used for flight planning purposes.